sensor_id;sensor_type;location;lat;lon;timestamp;P1;durP1;ratioP1;P2;durP2;ratioP2
76752;SDS011;65687;51.308;16.916;2022-12-07T00:04:03;7.10;;;5.50;;
76752;SDS011;65687;51.308;16.916;2022-12-07T00:09:09;5.80;;;3.70;;
76752;SDS011;65687;51.308;16.916;2022-12-07T00:14:14;5.70;;;3.90;;
76752;SDS011;65687;51.308;16.916;2022-12-07T00:19:17;4.80;;;3.40;;
76752;SDS011;65687;51.308;16.916;2022-12-07T00:24:20;7.30;;;3.60;;
76752;SDS011;65687;51.308;16.916;2022-12-07T00:34:27;7.10;;;4.30;;
76752;SDS011;65687;51.308;16.916;2022-12-07T00:39:29;6.90;;;3.90;;
76752;SDS011;65687;51.308;16.916;2022-12-07T00:44:32;4.70;;;2.90;;
76752;SDS011;65687;51.308;16.916;2022-12-07T00:49:34;5.80;;;3.50;;
76752;SDS011;65687;51.308;16.916;2022-12-07T00:54:36;4.90;;;2.80;;
76752;SDS011;65687;51.308;16.916;2022-12-07T00:59:39;7.00;;;4.40;;
76752;SDS011;65687;51.308;16.916;2022-12-07T01:04:41;6.30;;;3.60;;
76752;SDS011;65687;51.308;16.916;2022-12-07T01:09:43;5.60;;;3.80;;
76752;SDS011;65687;51.308;16.916;2022-12-07T01:19:48;3.20;;;2.40;;
76752;SDS011;65687;51.308;16.916;2022-12-07T01:24:50;4.10;;;2.40;;
76752;SDS011;65687;51.308;16.916;2022-12-07T01:29:52;6.10;;;4.10;;
76752;SDS011;65687;51.308;16.916;2022-12-07T01:34:53;5.40;;;3.30;;
76752;SDS011;65687;51.308;16.916;2022-12-07T01:39:56;5.30;;;3.00;;
76752;SDS011;65687;51.308;16.916;2022-12-07T01:55:33;4.00;;;2.40;;
76752;SDS011;65687;51.308;16.916;2022-12-07T02:00:39;3.50;;;2.60;;
76752;SDS011;65687;51.308;16.916;2022-12-07T02:05:43;4.10;;;2.50;;
76752;SDS011;65687;51.308;16.916;2022-12-07T02:10:47;3.40;;;2.30;;
76752;SDS011;65687;51.308;16.916;2022-12-07T02:21:51;2.90;;;1.80;;
76752;SDS011;65687;51.308;16.916;2022-12-07T02:27:28;5.20;;;2.40;;
76752;SDS011;65687;51.308;16.916;2022-12-07T02:33:07;2.50;;;2.00;;
76752;SDS011;65687;51.308;16.916;2022-12-07T02:38:18;3.10;;;2.10;;
76752;SDS011;65687;51.308;16.916;2022-12-07T02:43:23;2.30;;;1.70;;
76752;SDS011;65687;51.308;16.916;2022-12-07T02:48:28;2.40;;;1.70;;
76752;SDS011;65687;51.308;16.916;2022-12-07T02:53:32;3.20;;;2.40;;
76752;SDS011;65687;51.308;16.916;2022-12-07T03:04:18;4.00;;;2.00;;
76752;SDS011;65687;51.308;16.916;2022-12-07T03:09:28;3.00;;;1.70;;
76752;SDS011;65687;51.308;16.916;2022-12-07T03:14:39;1.90;;;1.40;;
76752;SDS011;65687;51.308;16.916;2022-12-07T03:19:47;2.70;;;2.10;;
76752;SDS011;65687;51.308;16.916;2022-12-07T03:24:53;3.10;;;2.30;;
76752;SDS011;65687;51.308;16.916;2022-12-07T03:30:03;2.20;;;1.50;;
76752;SDS011;65687;51.308;16.916;2022-12-07T03:35:11;2.20;;;1.60;;
76752;SDS011;65687;51.308;16.916;2022-12-07T03:40:34;1.90;;;1.50;;
76752;SDS011;65687;51.308;16.916;2022-12-07T03:45:44;2.20;;;1.90;;
76752;SDS011;65687;51.308;16.916;2022-12-07T03:51:13;2.40;;;1.60;;
76752;SDS011;65687;51.308;16.916;2022-12-07T03:56:23;1.30;;;1.10;;
76752;SDS011;65687;51.308;16.916;2022-12-07T04:01:26;1.70;;;1.30;;
76752;SDS011;65687;51.308;16.916;2022-12-07T04:06:29;1.30;;;1.20;;
76752;SDS011;65687;51.308;16.916;2022-12-07T04:11:31;2.70;;;1.80;;
76752;SDS011;65687;51.308;16.916;2022-12-07T04:16:32;2.30;;;1.70;;
76752;SDS011;65687;51.308;16.916;2022-12-07T04:21:34;2.60;;;1.50;;
76752;SDS011;65687;51.308;16.916;2022-12-07T04:26:37;2.30;;;1.70;;
76752;SDS011;65687;51.308;16.916;2022-12-07T04:31:40;1.90;;;1.10;;
76752;SDS011;65687;51.308;16.916;2022-12-07T04:36:42;3.40;;;2.40;;
76752;SDS011;65687;51.308;16.916;2022-12-07T04:41:45;2.40;;;2.00;;
76752;SDS011;65687;51.308;16.916;2022-12-07T04:46:47;2.20;;;1.80;;
76752;SDS011;65687;51.308;16.916;2022-12-07T04:51:50;2.40;;;1.90;;
76752;SDS011;65687;51.308;16.916;2022-12-07T04:56:52;3.00;;;2.60;;
76752;SDS011;65687;51.308;16.916;2022-12-07T05:01:54;3.00;;;2.60;;
76752;SDS011;65687;51.308;16.916;2022-12-07T05:06:56;3.50;;;2.50;;
76752;SDS011;65687;51.308;16.916;2022-12-07T05:11:58;3.20;;;2.40;;
76752;SDS011;65687;51.308;16.916;2022-12-07T05:17:00;3.70;;;3.30;;
76752;SDS011;65687;51.308;16.916;2022-12-07T05:22:03;2.60;;;2.20;;
76752;SDS011;65687;51.308;16.916;2022-12-07T05:32:06;7.10;;;4.80;;
76752;SDS011;65687;51.308;16.916;2022-12-07T05:37:08;5.30;;;3.70;;
76752;SDS011;65687;51.308;16.916;2022-12-07T05:42:10;5.80;;;3.70;;
76752;SDS011;65687;51.308;16.916;2022-12-07T05:47:16;7.20;;;4.20;;
76752;SDS011;65687;51.308;16.916;2022-12-07T05:52:18;15.20;;;7.40;;
76752;SDS011;65687;51.308;16.916;2022-12-07T05:57:20;10.40;;;6.70;;
76752;SDS011;65687;51.308;16.916;2022-12-07T06:02:22;9.70;;;5.30;;
76752;SDS011;65687;51.308;16.916;2022-12-07T06:07:24;7.90;;;5.20;;
76752;SDS011;65687;51.308;16.916;2022-12-07T06:12:28;14.20;;;7.90;;
76752;SDS011;65687;51.308;16.916;2022-12-07T06:17:35;6.70;;;4.10;;
76752;SDS011;65687;51.308;16.916;2022-12-07T06:22:38;9.70;;;6.10;;
76752;SDS011;65687;51.308;16.916;2022-12-07T06:27:40;9.00;;;6.20;;
76752;SDS011;65687;51.308;16.916;2022-12-07T06:32:41;15.40;;;7.40;;
76752;SDS011;65687;51.308;16.916;2022-12-07T06:37:43;16.00;;;8.70;;
76752;SDS011;65687;51.308;16.916;2022-12-07T06:42:45;12.80;;;7.10;;
76752;SDS011;65687;51.308;16.916;2022-12-07T06:48:03;8.40;;;6.30;;
76752;SDS011;65687;51.308;16.916;2022-12-07T06:53:04;11.60;;;7.20;;
76752;SDS011;65687;51.308;16.916;2022-12-07T06:58:07;16.50;;;8.80;;
76752;SDS011;65687;51.308;16.916;2022-12-07T07:03:10;13.10;;;8.20;;
76752;SDS011;65687;51.308;16.916;2022-12-07T07:08:12;10.10;;;5.70;;
76752;SDS011;65687;51.308;16.916;2022-12-07T07:13:14;9.70;;;6.00;;
76752;SDS011;65687;51.308;16.916;2022-12-07T07:18:17;11.20;;;6.60;;
76752;SDS011;65687;51.308;16.916;2022-12-07T07:23:19;10.40;;;6.20;;
76752;SDS011;65687;51.308;16.916;2022-12-07T07:28:23;8.80;;;5.20;;
76752;SDS011;65687;51.308;16.916;2022-12-07T07:33:25;14.90;;;8.60;;
76752;SDS011;65687;51.308;16.916;2022-12-07T07:38:26;13.00;;;7.40;;
76752;SDS011;65687;51.308;16.916;2022-12-07T07:43:29;13.40;;;7.50;;
76752;SDS011;65687;51.308;16.916;2022-12-07T07:48:31;8.60;;;5.60;;
76752;SDS011;65687;51.308;16.916;2022-12-07T07:53:33;11.30;;;6.70;;
76752;SDS011;65687;51.308;16.916;2022-12-07T07:58:34;11.10;;;7.30;;
76752;SDS011;65687;51.308;16.916;2022-12-07T08:03:39;14.10;;;8.70;;
76752;SDS011;65687;51.308;16.916;2022-12-07T08:08:42;11.50;;;6.90;;
76752;SDS011;65687;51.308;16.916;2022-12-07T08:13:46;10.90;;;5.40;;
76752;SDS011;65687;51.308;16.916;2022-12-07T08:18:50;11.60;;;7.00;;
76752;SDS011;65687;51.308;16.916;2022-12-07T08:24:08;9.50;;;6.20;;
76752;SDS011;65687;51.308;16.916;2022-12-07T08:29:16;11.70;;;8.20;;
76752;SDS011;65687;51.308;16.916;2022-12-07T08:34:22;14.10;;;7.30;;
76752;SDS011;65687;51.308;16.916;2022-12-07T08:39:28;15.40;;;9.10;;
76752;SDS011;65687;51.308;16.916;2022-12-07T08:44:31;17.50;;;8.90;;
76752;SDS011;65687;51.308;16.916;2022-12-07T08:49:40;15.20;;;8.80;;
76752;SDS011;65687;51.308;16.916;2022-12-07T08:54:53;23.60;;;11.40;;
76752;SDS011;65687;51.308;16.916;2022-12-07T08:59:56;18.40;;;10.80;;
76752;SDS011;65687;51.308;16.916;2022-12-07T09:05:00;18.00;;;9.50;;
76752;SDS011;65687;51.308;16.916;2022-12-07T09:10:04;18.50;;;11.20;;
76752;SDS011;65687;51.308;16.916;2022-12-07T09:15:12;11.80;;;7.30;;
76752;SDS011;65687;51.308;16.916;2022-12-07T09:20:19;15.80;;;7.70;;
76752;SDS011;65687;51.308;16.916;2022-12-07T09:25:21;18.20;;;8.90;;
76752;SDS011;65687;51.308;16.916;2022-12-07T09:30:26;17.70;;;8.60;;
76752;SDS011;65687;51.308;16.916;2022-12-07T09:35:30;14.40;;;7.90;;
76752;SDS011;65687;51.308;16.916;2022-12-07T09:40:35;10.70;;;6.90;;
76752;SDS011;65687;51.308;16.916;2022-12-07T09:45:38;15.00;;;7.40;;
76752;SDS011;65687;51.308;16.916;2022-12-07T09:50:41;10.20;;;6.00;;
76752;SDS011;65687;51.308;16.916;2022-12-07T09:55:43;15.30;;;9.30;;
76752;SDS011;65687;51.308;16.916;2022-12-07T10:00:48;10.20;;;6.00;;
76752;SDS011;65687;51.308;16.916;2022-12-07T10:05:55;15.40;;;8.10;;
76752;SDS011;65687;51.308;16.916;2022-12-07T10:11:08;9.60;;;5.60;;
76752;SDS011;65687;51.308;16.916;2022-12-07T10:21:28;11.10;;;6.50;;
76752;SDS011;65687;51.308;16.916;2022-12-07T10:26:39;10.60;;;6.80;;
76752;SDS011;65687;51.308;16.916;2022-12-07T10:32:08;12.40;;;6.90;;
76752;SDS011;65687;51.308;16.916;2022-12-07T10:37:41;8.70;;;4.60;;
76752;SDS011;65687;51.308;16.916;2022-12-07T10:42:45;10.80;;;7.20;;
76752;SDS011;65687;51.308;16.916;2022-12-07T10:48:24;10.10;;;5.70;;
76752;SDS011;65687;51.308;16.916;2022-12-07T11:15:21;8.60;;;5.70;;
76752;SDS011;65687;51.308;16.916;2022-12-07T11:20:39;8.70;;;4.40;;
76752;SDS011;65687;51.308;16.916;2022-12-07T11:41:40;9.80;;;6.40;;
76752;SDS011;65687;51.308;16.916;2022-12-07T11:46:49;6.00;;;3.70;;
76752;SDS011;65687;51.308;16.916;2022-12-07T11:52:01;6.50;;;4.20;;
76752;SDS011;65687;51.308;16.916;2022-12-07T11:57:12;13.30;;;8.30;;
76752;SDS011;65687;51.308;16.916;2022-12-07T12:02:26;14.40;;;8.60;;
76752;SDS011;65687;51.308;16.916;2022-12-07T12:12:54;8.20;;;4.50;;
76752;SDS011;65687;51.308;16.916;2022-12-07T12:23:28;7.40;;;4.80;;
76752;SDS011;65687;51.308;16.916;2022-12-07T12:33:51;7.80;;;5.70;;
76752;SDS011;65687;51.308;16.916;2022-12-07T12:44:01;7.20;;;5.40;;
76752;SDS011;65687;51.308;16.916;2022-12-07T12:49:14;7.10;;;5.30;;
76752;SDS011;65687;51.308;16.916;2022-12-07T13:00:21;9.80;;;6.80;;
76752;SDS011;65687;51.308;16.916;2022-12-07T13:05:26;9.00;;;5.80;;
76752;SDS011;65687;51.308;16.916;2022-12-07T13:10:38;7.20;;;4.90;;
76752;SDS011;65687;51.308;16.916;2022-12-07T13:31:03;5.50;;;3.40;;
76752;SDS011;65687;51.308;16.916;2022-12-07T13:36:27;7.70;;;5.50;;
76752;SDS011;65687;51.308;16.916;2022-12-07T13:41:43;10.30;;;6.20;;
76752;SDS011;65687;51.308;16.916;2022-12-07T13:52:28;5.60;;;3.80;;
76752;SDS011;65687;51.308;16.916;2022-12-07T13:57:33;8.60;;;6.00;;
76752;SDS011;65687;51.308;16.916;2022-12-07T14:02:53;4.70;;;3.30;;
76752;SDS011;65687;51.308;16.916;2022-12-07T14:08:04;7.90;;;5.20;;
76752;SDS011;65687;51.308;16.916;2022-12-07T14:23:38;9.10;;;5.40;;
76752;SDS011;65687;51.308;16.916;2022-12-07T14:28:42;6.50;;;4.20;;
76752;SDS011;65687;51.308;16.916;2022-12-07T14:33:45;3.20;;;1.90;;
76752;SDS011;65687;51.308;16.916;2022-12-07T14:38:47;7.70;;;4.70;;
76752;SDS011;65687;51.308;16.916;2022-12-07T14:43:49;8.10;;;4.10;;
76752;SDS011;65687;51.308;16.916;2022-12-07T14:48:51;9.00;;;5.70;;
76752;SDS011;65687;51.308;16.916;2022-12-07T14:53:53;8.50;;;5.30;;
76752;SDS011;65687;51.308;16.916;2022-12-07T14:58:55;9.20;;;4.70;;
76752;SDS011;65687;51.308;16.916;2022-12-07T15:03:57;7.50;;;4.90;;
76752;SDS011;65687;51.308;16.916;2022-12-07T15:08:59;4.70;;;3.40;;
76752;SDS011;65687;51.308;16.916;2022-12-07T15:14:01;6.40;;;3.80;;
76752;SDS011;65687;51.308;16.916;2022-12-07T15:19:11;9.60;;;5.10;;
76752;SDS011;65687;51.308;16.916;2022-12-07T15:24:14;10.10;;;5.80;;
76752;SDS011;65687;51.308;16.916;2022-12-07T15:29:16;7.10;;;4.50;;
76752;SDS011;65687;51.308;16.916;2022-12-07T15:34:19;7.00;;;4.60;;
76752;SDS011;65687;51.308;16.916;2022-12-07T15:39:21;9.60;;;5.50;;
76752;SDS011;65687;51.308;16.916;2022-12-07T15:44:23;6.40;;;4.60;;
76752;SDS011;65687;51.308;16.916;2022-12-07T15:49:44;9.90;;;5.50;;
76752;SDS011;65687;51.308;16.916;2022-12-07T15:54:46;7.70;;;5.30;;
76752;SDS011;65687;51.308;16.916;2022-12-07T15:59:48;6.50;;;3.90;;
76752;SDS011;65687;51.308;16.916;2022-12-07T16:04:51;9.00;;;5.40;;
76752;SDS011;65687;51.308;16.916;2022-12-07T16:09:54;9.30;;;5.10;;
76752;SDS011;65687;51.308;16.916;2022-12-07T16:14:56;7.20;;;4.40;;
76752;SDS011;65687;51.308;16.916;2022-12-07T16:19:58;6.50;;;3.60;;
76752;SDS011;65687;51.308;16.916;2022-12-07T16:25:00;11.90;;;6.00;;
76752;SDS011;65687;51.308;16.916;2022-12-07T16:30:02;9.80;;;5.60;;
76752;SDS011;65687;51.308;16.916;2022-12-07T16:35:04;5.60;;;3.20;;
76752;SDS011;65687;51.308;16.916;2022-12-07T16:40:08;13.60;;;7.00;;
76752;SDS011;65687;51.308;16.916;2022-12-07T16:45:10;9.00;;;5.70;;
76752;SDS011;65687;51.308;16.916;2022-12-07T16:50:12;11.10;;;7.20;;
76752;SDS011;65687;51.308;16.916;2022-12-07T16:55:14;23.40;;;12.90;;
76752;SDS011;65687;51.308;16.916;2022-12-07T17:00:16;34.90;;;20.90;;
76752;SDS011;65687;51.308;16.916;2022-12-07T17:05:19;35.50;;;19.00;;
76752;SDS011;65687;51.308;16.916;2022-12-07T17:10:22;33.90;;;19.10;;
76752;SDS011;65687;51.308;16.916;2022-12-07T17:15:24;26.20;;;12.70;;
76752;SDS011;65687;51.308;16.916;2022-12-07T17:20:26;41.90;;;20.40;;
76752;SDS011;65687;51.308;16.916;2022-12-07T17:25:28;24.80;;;13.30;;
76752;SDS011;65687;51.308;16.916;2022-12-07T17:30:30;18.80;;;9.20;;
76752;SDS011;65687;51.308;16.916;2022-12-07T17:35:32;13.40;;;8.60;;
76752;SDS011;65687;51.308;16.916;2022-12-07T17:40:34;15.70;;;8.10;;
76752;SDS011;65687;51.308;16.916;2022-12-07T17:45:36;16.30;;;9.60;;
76752;SDS011;65687;51.308;16.916;2022-12-07T17:50:38;12.70;;;8.00;;
76752;SDS011;65687;51.308;16.916;2022-12-07T17:56:19;17.70;;;12.40;;
76752;SDS011;65687;51.308;16.916;2022-12-07T18:01:21;34.60;;;19.00;;
76752;SDS011;65687;51.308;16.916;2022-12-07T18:06:23;16.70;;;11.50;;
76752;SDS011;65687;51.308;16.916;2022-12-07T18:11:25;17.80;;;10.70;;
76752;SDS011;65687;51.308;16.916;2022-12-07T18:16:28;18.30;;;12.30;;
76752;SDS011;65687;51.308;16.916;2022-12-07T18:21:31;14.60;;;10.40;;
76752;SDS011;65687;51.308;16.916;2022-12-07T18:26:33;12.70;;;8.20;;
76752;SDS011;65687;51.308;16.916;2022-12-07T18:31:38;23.10;;;12.70;;
76752;SDS011;65687;51.308;16.916;2022-12-07T18:36:40;18.00;;;10.60;;
76752;SDS011;65687;51.308;16.916;2022-12-07T18:41:44;11.50;;;8.50;;
76752;SDS011;65687;51.308;16.916;2022-12-07T18:46:46;10.30;;;7.80;;
76752;SDS011;65687;51.308;16.916;2022-12-07T18:51:48;11.80;;;7.00;;
76752;SDS011;65687;51.308;16.916;2022-12-07T18:56:51;12.20;;;7.10;;
76752;SDS011;65687;51.308;16.916;2022-12-07T19:01:53;11.10;;;6.40;;
76752;SDS011;65687;51.308;16.916;2022-12-07T19:06:55;14.60;;;8.90;;
76752;SDS011;65687;51.308;16.916;2022-12-07T19:11:57;16.10;;;10.40;;
76752;SDS011;65687;51.308;16.916;2022-12-07T19:17:07;17.40;;;10.70;;
76752;SDS011;65687;51.308;16.916;2022-12-07T19:22:13;16.90;;;9.20;;
76752;SDS011;65687;51.308;16.916;2022-12-07T19:27:17;13.00;;;7.40;;
76752;SDS011;65687;51.308;16.916;2022-12-07T19:32:20;14.60;;;8.60;;
76752;SDS011;65687;51.308;16.916;2022-12-07T19:37:22;16.90;;;9.40;;
76752;SDS011;65687;51.308;16.916;2022-12-07T19:42:24;12.30;;;7.50;;
76752;SDS011;65687;51.308;16.916;2022-12-07T19:47:26;20.40;;;10.80;;
76752;SDS011;65687;51.308;16.916;2022-12-07T19:52:27;13.90;;;8.60;;
76752;SDS011;65687;51.308;16.916;2022-12-07T19:57:29;11.90;;;7.20;;
76752;SDS011;65687;51.308;16.916;2022-12-07T20:02:31;10.90;;;6.70;;
76752;SDS011;65687;51.308;16.916;2022-12-07T20:07:33;11.90;;;7.10;;
76752;SDS011;65687;51.308;16.916;2022-12-07T20:12:39;11.70;;;7.10;;
76752;SDS011;65687;51.308;16.916;2022-12-07T20:17:59;12.50;;;8.40;;
76752;SDS011;65687;51.308;16.916;2022-12-07T20:23:01;16.90;;;9.20;;
76752;SDS011;65687;51.308;16.916;2022-12-07T20:28:03;16.40;;;7.60;;
76752;SDS011;65687;51.308;16.916;2022-12-07T20:33:05;8.50;;;4.50;;
76752;SDS011;65687;51.308;16.916;2022-12-07T20:38:07;8.00;;;4.60;;
76752;SDS011;65687;51.308;16.916;2022-12-07T20:43:10;8.30;;;5.50;;
76752;SDS011;65687;51.308;16.916;2022-12-07T20:48:13;12.30;;;7.30;;
76752;SDS011;65687;51.308;16.916;2022-12-07T20:53:15;12.80;;;6.50;;
76752;SDS011;65687;51.308;16.916;2022-12-07T20:58:17;8.50;;;6.20;;
76752;SDS011;65687;51.308;16.916;2022-12-07T21:03:19;9.80;;;5.40;;
76752;SDS011;65687;51.308;16.916;2022-12-07T21:08:20;13.10;;;6.50;;
76752;SDS011;65687;51.308;16.916;2022-12-07T21:13:22;11.20;;;6.70;;
76752;SDS011;65687;51.308;16.916;2022-12-07T21:18:24;12.80;;;6.20;;
76752;SDS011;65687;51.308;16.916;2022-12-07T21:23:26;14.60;;;8.10;;
76752;SDS011;65687;51.308;16.916;2022-12-07T21:28:28;12.40;;;7.50;;
76752;SDS011;65687;51.308;16.916;2022-12-07T21:33:31;11.40;;;5.20;;
76752;SDS011;65687;51.308;16.916;2022-12-07T21:38:33;12.30;;;7.00;;
76752;SDS011;65687;51.308;16.916;2022-12-07T21:43:35;11.80;;;6.50;;
76752;SDS011;65687;51.308;16.916;2022-12-07T21:48:37;12.30;;;6.90;;
76752;SDS011;65687;51.308;16.916;2022-12-07T21:53:40;13.80;;;7.40;;
76752;SDS011;65687;51.308;16.916;2022-12-07T22:03:46;12.30;;;6.20;;
76752;SDS011;65687;51.308;16.916;2022-12-07T22:08:48;6.90;;;4.80;;
76752;SDS011;65687;51.308;16.916;2022-12-07T22:13:51;8.70;;;5.30;;
76752;SDS011;65687;51.308;16.916;2022-12-07T22:19:11;10.50;;;4.50;;
76752;SDS011;65687;51.308;16.916;2022-12-07T22:24:13;10.90;;;5.20;;
76752;SDS011;65687;51.308;16.916;2022-12-07T22:29:15;8.30;;;4.00;;
76752;SDS011;65687;51.308;16.916;2022-12-07T22:34:17;10.10;;;6.40;;
76752;SDS011;65687;51.308;16.916;2022-12-07T22:39:19;16.00;;;8.70;;
76752;SDS011;65687;51.308;16.916;2022-12-07T22:44:21;15.00;;;8.40;;
76752;SDS011;65687;51.308;16.916;2022-12-07T22:49:22;11.90;;;6.80;;
76752;SDS011;65687;51.308;16.916;2022-12-07T22:54:24;6.60;;;3.20;;
76752;SDS011;65687;51.308;16.916;2022-12-07T22:59:26;10.70;;;5.80;;
76752;SDS011;65687;51.308;16.916;2022-12-07T23:04:28;9.40;;;6.00;;
76752;SDS011;65687;51.308;16.916;2022-12-07T23:09:30;11.40;;;5.40;;
76752;SDS011;65687;51.308;16.916;2022-12-07T23:14:35;9.10;;;5.30;;
76752;SDS011;65687;51.308;16.916;2022-12-07T23:19:37;9.80;;;5.90;;
76752;SDS011;65687;51.308;16.916;2022-12-07T23:24:38;18.40;;;7.50;;
76752;SDS011;65687;51.308;16.916;2022-12-07T23:29:40;18.70;;;9.10;;
76752;SDS011;65687;51.308;16.916;2022-12-07T23:34:42;18.00;;;10.20;;
76752;SDS011;65687;51.308;16.916;2022-12-07T23:39:44;17.20;;;9.40;;
76752;SDS011;65687;51.308;16.916;2022-12-07T23:44:46;19.50;;;10.70;;
76752;SDS011;65687;51.308;16.916;2022-12-07T23:49:48;23.90;;;12.30;;
76752;SDS011;65687;51.308;16.916;2022-12-07T23:54:50;22.00;;;11.30;;
76752;SDS011;65687;51.308;16.916;2022-12-07T23:59:51;21.20;;;11.10;;
